Aviation Digital Data Service (ADDS)

Output produced by METARs form (0313 UTC 18 June 2019)
found at http://www.aviationweather.gov/metar/data/
 
Forecast for: VYYY (YANGON INTL MYAN, VN)
Text: TAF VYYY 172300Z 1800/1824 21006KT 6000 BKN013 FEW015CB OVC090
Forecast period: 0000 to 1000 UTC 18 June 2019
Forecast type: FROM: standard forecast or significant change
Winds: from the SSW (210 degrees) at 7 MPH (6 knots; 3.1 m/s)
Visibility: 4 miles (6 km)
Ceiling: 1300 feet AGL
Clouds: broken clouds at 1300 feet AGL
few clouds at 1500 feet AGL
overcast cloud deck at 9000 feet AGL
Weather: no significant weather forecast for this period
Text: TEMPO 1803/1809 21008G18KT 4000 SHRA
Forecast period: 0300 to 0900 UTC 18 June 2019
Forecast type: TEMPORARY: The following changes expected for less than half the time period
Winds: from the SSW (210 degrees) at 9 MPH (8 knots; 4.1 m/s)
gusting to 21 MPH (18 knots; 9.3 m/s)
Visibility: 2.49 miles (4.01 km)
Ceiling: unknown
Clouds: missing
Weather: SHRA  (rain showers)
Text: BECMG 1810/1812 5000 -RA
Forecast period: 1000 UTC 18 June 2019 to 0000 UTC 19 June 2019
Forecast type: BECOMING: Conditions expected to become as follows by 1200 UTC 18 June 2019
Winds: from the SSW (210 degrees) at 7 MPH (6 knots; 3.1 m/s)
Visibility: 3 miles (5 km)
Ceiling: 1300 feet AGL
Clouds: broken clouds at 1300 feet AGL
few clouds at 1500 feet AGL
overcast cloud deck at 9000 feet AGL
Weather: -RA  (light rain)